createdAt,value
2024-01-06T00:02:07.912Z,2.92
2024-01-06T00:04:35.803Z,2.37
2024-01-06T00:07:03.382Z,2.79
2024-01-06T00:09:30.993Z,2.74
2024-01-06T00:11:58.789Z,2.21
2024-01-06T00:14:26.842Z,1.97
2024-01-06T00:16:55.755Z,1.90
2024-01-06T00:19:23.418Z,1.71
2024-01-06T00:21:51.170Z,2.12
2024-01-06T00:24:19.056Z,1.92
2024-01-06T00:26:47.144Z,2.60
2024-01-06T00:29:14.998Z,1.94
2024-01-06T00:31:43.153Z,2.41
2024-01-06T00:34:12.166Z,2.27
2024-01-06T00:36:39.935Z,2.86
2024-01-06T00:41:42.960Z,2.30
2024-01-06T01:00:24.190Z,1.91
2024-01-06T01:02:52.347Z,2.37
2024-01-06T01:21:56.868Z,1.66
2024-01-06T01:24:24.720Z,2.07
2024-01-06T01:26:52.906Z,2.29
2024-01-06T01:29:21.776Z,1.92
2024-01-06T01:31:57.417Z,1.73
2024-01-06T01:34:27.312Z,1.69
2024-01-06T01:36:56.665Z,2.60
2024-01-06T01:39:24.740Z,2.95
2024-01-06T01:41:52.731Z,2.65
2024-01-06T01:44:21.370Z,1.94
2024-01-06T01:46:49.066Z,1.99
2024-01-06T01:49:17.951Z,1.87
2024-01-06T01:51:47.322Z,1.86
2024-01-06T01:54:15.574Z,1.94
2024-01-06T01:56:44.535Z,2.18
2024-01-06T01:59:14.288Z,2.74
2024-01-06T02:01:42.444Z,2.09
2024-01-06T02:04:10.368Z,2.74
2024-01-06T02:06:37.968Z,2.50
2024-01-06T02:09:07.690Z,2.10
2024-01-06T02:11:35.228Z,1.95
2024-01-06T02:14:02.869Z,1.82
2024-01-06T02:16:30.447Z,1.74
2024-01-06T02:18:59.663Z,1.75
2024-01-06T02:21:30.104Z,1.68
2024-01-06T02:23:59.251Z,1.65
2024-01-06T02:26:27.155Z,1.73
2024-01-06T02:28:54.733Z,1.84
2024-01-06T02:31:22.470Z,1.76
2024-01-06T02:33:50.204Z,1.89
2024-01-06T02:36:18.178Z,1.90
2024-01-06T02:38:45.853Z,2.39
2024-01-06T02:41:15.049Z,2.40
2024-01-06T02:43:42.802Z,1.81
2024-01-06T02:46:10.434Z,2.36
2024-01-06T02:48:38.428Z,1.95
2024-01-06T02:51:06.815Z,2.94
2024-01-06T02:53:34.392Z,1.91
2024-01-06T02:56:01.969Z,1.79
2024-01-06T02:58:30.973Z,1.86
2024-01-06T03:00:58.752Z,2.36
2024-01-06T03:03:26.587Z,2.95
2024-01-06T03:05:54.442Z,3.11
2024-01-06T03:08:22.116Z,3.70
2024-01-06T03:10:49.647Z,3.23
2024-01-06T03:13:17.270Z,2.28
2024-01-06T03:15:46.959Z,2.70
2024-01-06T03:18:15.147Z,3.03
2024-01-06T03:20:42.963Z,1.79
2024-01-06T03:23:10.603Z,3.12
2024-01-06T03:25:38.286Z,3.14
2024-01-06T03:28:06.282Z,3.75
2024-01-06T03:30:34.058Z,4.13
2024-01-06T03:33:03.323Z,3.88
2024-01-06T03:35:31.276Z,3.27
2024-01-06T03:37:58.911Z,3.04
2024-01-06T03:40:26.526Z,3.67
2024-01-06T03:42:55.115Z,3.21
2024-01-06T03:45:22.924Z,2.77
2024-01-06T03:47:50.930Z,3.30
2024-01-06T03:50:21.062Z,3.42
2024-01-06T03:52:50.027Z,3.85
2024-01-06T03:55:18.387Z,3.27
2024-01-06T03:57:45.994Z,2.31
2024-01-06T04:00:14.298Z,2.95
2024-01-06T04:02:41.926Z,2.57
2024-01-06T04:05:09.560Z,2.16
2024-01-06T04:07:38.741Z,3.20
2024-01-06T04:10:06.956Z,3.45
2024-01-06T04:12:34.853Z,2.89
2024-01-06T04:15:02.790Z,2.88
2024-01-06T04:17:30.424Z,3.62
2024-01-06T04:19:58.152Z,3.39
2024-01-06T04:22:26.507Z,3.09
2024-01-06T04:24:55.506Z,2.30
2024-01-06T04:27:23.249Z,3.40
2024-01-06T04:29:54.150Z,3.11
2024-01-06T04:32:22.257Z,3.22
2024-01-06T04:34:49.854Z,2.39
2024-01-06T04:37:17.484Z,3.17
2024-01-06T04:39:45.173Z,3.15
2024-01-06T04:42:14.202Z,2.71
2024-01-06T04:44:41.830Z,2.59
2024-01-06T04:47:09.572Z,2.31
2024-01-06T04:49:37.282Z,2.46
2024-01-06T04:52:05.385Z,3.14
2024-01-06T04:54:33.109Z,2.98
2024-01-06T04:57:01.184Z,3.24
2024-01-06T04:59:30.736Z,3.11
2024-01-06T05:01:59.583Z,2.58
2024-01-06T05:04:27.294Z,2.90
2024-01-06T05:06:56.043Z,2.64
2024-01-06T05:09:24.628Z,3.28
2024-01-06T05:11:52.384Z,2.62
2024-01-06T05:14:20.179Z,2.58
2024-01-06T05:16:49.297Z,2.94
2024-01-06T05:19:21.349Z,2.67
2024-01-06T05:21:50.268Z,2.41
2024-01-06T05:24:18.158Z,1.98
2024-01-06T05:26:46.050Z,2.46
2024-01-06T05:29:13.925Z,2.16
2024-01-06T05:31:42.003Z,2.43
2024-01-06T05:34:11.191Z,2.62
2024-01-06T05:36:39.053Z,2.26
2024-01-06T05:39:06.885Z,2.77
2024-01-06T05:41:39.738Z,2.86
2024-01-06T05:44:07.495Z,2.57
2024-01-06T05:46:36.934Z,3.39
2024-01-06T05:49:05.768Z,3.39
2024-01-06T05:51:34.859Z,2.68
2024-01-06T05:54:03.960Z,3.11
2024-01-06T05:56:31.934Z,2.22
2024-01-06T05:58:59.632Z,2.91
2024-01-06T06:01:27.552Z,2.61
2024-01-06T06:03:55.445Z,2.82
2024-01-06T06:06:23.120Z,2.63
2024-01-06T06:08:52.152Z,2.08
2024-01-06T06:11:20.035Z,2.62
2024-01-06T06:13:47.687Z,2.08
2024-01-06T06:16:15.336Z,2.95
2024-01-06T06:18:43.302Z,2.72
2024-01-06T06:21:11.083Z,2.65
2024-01-06T06:23:38.711Z,3.88
2024-01-06T06:26:09.132Z,1.87
2024-01-06T06:28:37.391Z,2.71
2024-01-06T06:31:05.765Z,2.99
2024-01-06T06:33:34.573Z,2.64
2024-01-06T06:36:02.932Z,2.08
2024-01-06T06:38:30.828Z,1.90
2024-01-06T06:40:58.567Z,2.19
2024-01-06T06:43:27.746Z,1.93
2024-01-06T06:45:56.711Z,2.05
2024-01-06T06:48:24.620Z,2.07
2024-01-06T06:50:52.222Z,1.91
2024-01-06T06:53:20.243Z,2.00
2024-01-06T06:55:48.195Z,1.86
2024-01-06T06:58:16.075Z,1.72
2024-01-06T07:00:45.210Z,2.09
2024-01-06T07:03:13.263Z,2.76
2024-01-06T07:05:41.471Z,1.85
2024-01-06T07:08:09.730Z,2.43
2024-01-06T07:10:37.662Z,2.35
2024-01-06T07:13:05.654Z,1.69
2024-01-06T07:15:34.060Z,1.68
2024-01-06T07:18:03.239Z,2.13
2024-01-06T07:20:31.492Z,1.82
2024-01-06T07:22:59.179Z,2.54
2024-01-06T07:25:26.984Z,2.43
2024-01-06T07:27:55.826Z,3.00
2024-01-06T07:30:23.879Z,2.20
2024-01-06T07:32:53.325Z,1.75
2024-01-06T07:35:22.800Z,2.38
2024-01-06T07:37:50.643Z,2.34
2024-01-06T07:40:18.457Z,2.33
2024-01-06T07:42:46.541Z,2.08
2024-01-06T07:45:14.897Z,2.30
2024-01-06T07:47:43.012Z,2.03
2024-01-06T07:50:11.365Z,1.95
2024-01-06T07:52:40.710Z,2.36
2024-01-06T07:55:09.220Z,1.98
2024-01-06T07:57:36.868Z,2.31
2024-01-06T08:00:06.392Z,2.10
2024-01-06T08:02:34.339Z,1.76
2024-01-06T08:05:01.963Z,2.02
2024-01-06T08:07:29.522Z,1.77
2024-01-06T08:09:58.501Z,1.75
2024-01-06T08:12:26.844Z,1.94
2024-01-06T08:14:54.840Z,1.83
2024-01-06T08:17:22.464Z,2.11
2024-01-06T08:19:50.410Z,2.14
2024-01-06T08:22:18.274Z,1.95
2024-01-06T08:24:45.958Z,2.10
2024-01-06T08:27:15.086Z,2.23
2024-01-06T08:29:44.401Z,2.02
2024-01-06T08:32:12.619Z,2.83
2024-01-06T08:34:40.476Z,1.88
2024-01-06T08:37:08.076Z,3.74
2024-01-06T08:39:35.746Z,3.52
2024-01-06T08:42:03.542Z,3.26
2024-01-06T08:44:32.630Z,3.83
2024-01-06T08:47:00.210Z,1.84
2024-01-06T08:49:27.831Z,2.07
2024-01-06T08:51:56.040Z,1.58
2024-01-06T08:54:23.697Z,2.32
2024-01-06T08:56:51.511Z,2.06
2024-01-06T08:59:19.118Z,3.18
2024-01-06T09:01:50.411Z,3.52
2024-01-06T09:04:19.112Z,2.90
2024-01-06T09:06:47.774Z,1.73
2024-01-06T09:09:15.923Z,3.26
2024-01-06T09:11:45.214Z,1.97
2024-01-06T09:14:13.071Z,3.02
2024-01-06T09:16:40.755Z,2.06
2024-01-06T09:19:10.202Z,3.46
2024-01-06T09:21:38.654Z,2.68
2024-01-06T09:24:08.093Z,3.80
2024-01-06T09:26:35.963Z,4.05
2024-01-06T09:29:04.087Z,3.11
2024-01-06T09:31:32.287Z,1.93
2024-01-06T09:34:03.674Z,1.88
2024-01-06T09:36:33.552Z,2.82
2024-01-06T09:39:01.172Z,2.47
2024-01-06T09:41:29.178Z,1.99
2024-01-06T09:43:57.784Z,1.54
2024-01-06T09:46:27.279Z,1.44
2024-01-06T09:48:56.589Z,3.25
2024-01-06T09:51:25.465Z,1.87
2024-01-06T09:53:59.542Z,2.95
2024-01-06T09:56:29.077Z,2.81
2024-01-06T09:58:57.442Z,2.62
2024-01-06T10:01:25.449Z,1.83
2024-01-06T10:03:53.557Z,2.35
2024-01-06T10:06:22.197Z,2.19
2024-01-06T10:08:51.341Z,2.27
2024-01-06T10:11:22.435Z,1.43
2024-01-06T10:13:50.853Z,2.04
2024-01-06T10:16:18.690Z,1.45
2024-01-06T10:18:48.240Z,1.94
2024-01-06T10:21:18.819Z,1.94
2024-01-06T10:23:47.110Z,2.10
2024-01-06T10:26:15.352Z,1.93
2024-01-06T10:28:44.453Z,2.48
2024-01-06T10:31:12.787Z,1.30
2024-01-06T10:33:41.255Z,1.33
2024-01-06T10:36:10.787Z,1.32
2024-01-06T10:38:38.365Z,1.34
2024-01-06T10:41:08.433Z,1.25
2024-01-06T10:43:39.095Z,1.27
2024-01-06T10:46:11.653Z,1.84
2024-01-06T10:48:43.883Z,2.18
2024-01-06T10:51:12.760Z,3.81
2024-01-06T10:53:42.445Z,2.13
2024-01-06T10:56:11.643Z,2.39
2024-01-06T10:58:44.056Z,2.64
2024-01-06T11:01:17.531Z,1.81
2024-01-06T11:03:48.153Z,2.46
2024-01-06T11:06:17.412Z,2.35
2024-01-06T11:08:50.714Z,2.14
2024-01-06T11:11:19.724Z,3.17
2024-01-06T11:13:48.195Z,2.34
2024-01-06T11:16:36.016Z,1.91
2024-01-06T11:19:03.913Z,1.77
2024-01-06T11:21:37.095Z,1.70
2024-01-06T11:24:17.710Z,3.37
2024-01-06T11:26:47.214Z,1.63
2024-01-06T11:29:14.822Z,2.14
2024-01-06T11:31:44.625Z,1.73
2024-01-06T11:34:18.258Z,1.92
2024-01-06T11:36:47.000Z,1.86
2024-01-06T11:39:36.672Z,2.91
2024-01-06T11:42:06.732Z,3.35
2024-01-06T11:44:36.235Z,3.20
2024-01-06T11:47:06.836Z,1.80
2024-01-06T11:49:34.981Z,3.32
2024-01-06T11:52:03.205Z,3.78
2024-01-06T11:54:31.778Z,1.28
2024-01-06T11:56:59.805Z,1.53
2024-01-06T11:59:28.174Z,1.39
2024-01-06T12:01:56.002Z,0.95
2024-01-06T12:04:26.869Z,0.99
2024-01-06T12:06:56.022Z,1.10
2024-01-06T12:09:25.416Z,0.99
2024-01-06T12:12:03.284Z,2.57
2024-01-06T12:14:31.310Z,2.31
2024-01-06T12:17:03.798Z,1.51
2024-01-06T12:19:37.402Z,2.54
2024-01-06T12:22:08.468Z,1.59
2024-01-06T12:24:36.373Z,1.04
2024-01-06T12:27:04.356Z,1.23
2024-01-06T12:29:33.141Z,2.03
2024-01-06T12:32:01.992Z,1.04
2024-01-06T12:34:29.688Z,0.78
2024-01-06T12:36:59.274Z,2.95
2024-01-06T12:39:29.722Z,3.07
2024-01-06T12:41:57.740Z,1.91
2024-01-06T12:44:25.420Z,2.12
2024-01-06T12:46:53.119Z,1.61
2024-01-06T12:49:20.728Z,2.22
2024-01-06T12:51:48.486Z,2.60
2024-01-06T12:54:17.585Z,1.73
2024-01-06T12:56:45.254Z,2.46
2024-01-06T12:59:12.904Z,2.69
2024-01-06T13:01:40.853Z,2.58
2024-01-06T13:04:08.911Z,1.82
2024-01-06T13:06:36.951Z,1.70
2024-01-06T13:09:07.512Z,2.39
2024-01-06T13:11:37.477Z,1.73
2024-01-06T13:14:05.200Z,1.01
2024-01-06T13:16:32.899Z,1.33
2024-01-06T13:19:01.245Z,1.10
2024-01-06T13:21:29.934Z,0.87
2024-01-06T13:24:02.073Z,1.55
2024-01-06T13:26:30.044Z,1.58
2024-01-06T13:28:59.041Z,1.22
2024-01-06T13:31:27.843Z,1.70
2024-01-06T13:33:57.045Z,1.66
2024-01-06T13:36:24.777Z,3.02
2024-01-06T13:38:52.692Z,2.35
2024-01-06T13:41:20.439Z,2.43
2024-01-06T13:43:48.464Z,2.43
2024-01-06T13:46:17.739Z,3.68
2024-01-06T13:48:45.491Z,1.22
2024-01-06T13:51:13.182Z,0.82
2024-01-06T13:53:40.793Z,1.05
2024-01-06T13:56:08.662Z,1.90
2024-01-06T13:58:37.089Z,1.19
2024-01-06T14:01:05.229Z,1.87
2024-01-06T14:03:34.461Z,2.08
2024-01-06T14:06:02.244Z,1.46
2024-01-06T14:08:29.898Z,1.11
2024-01-06T14:10:57.615Z,1.09
2024-01-06T14:13:25.271Z,0.71
2024-01-06T14:15:53.042Z,1.30
2024-01-06T14:18:20.876Z,2.28
2024-01-06T14:20:50.300Z,0.68
2024-01-06T14:23:18.038Z,0.70
2024-01-06T14:25:45.732Z,2.48
2024-01-06T14:28:13.384Z,1.97
2024-01-06T14:30:41.180Z,1.43
2024-01-06T14:33:09.175Z,1.78
2024-01-06T14:35:36.788Z,2.36
2024-01-06T14:38:06.755Z,1.62
2024-01-06T14:40:34.613Z,1.48
2024-01-06T14:43:03.651Z,2.28
2024-01-06T14:45:31.358Z,0.83
2024-01-06T14:47:59.560Z,1.58
2024-01-06T14:50:27.425Z,2.09
2024-01-06T14:52:55.021Z,0.53
2024-01-06T14:55:23.987Z,0.32
2024-01-06T14:57:51.964Z,0.52
2024-01-06T15:00:20.137Z,1.02
2024-01-06T15:02:48.140Z,1.07
2024-01-06T15:05:15.925Z,1.50
2024-01-06T15:07:43.699Z,1.93
2024-01-06T15:10:13.610Z,0.95
2024-01-06T15:12:42.441Z,1.11
2024-01-06T15:15:10.569Z,1.13
2024-01-06T15:17:38.915Z,1.83
2024-01-06T15:20:07.920Z,0.63
2024-01-06T15:22:38.246Z,0.08
2024-01-06T15:25:09.008Z,0.49
2024-01-06T15:27:36.795Z,1.19
2024-01-06T15:30:08.961Z,0.05
2024-01-06T15:32:37.190Z,1.30
2024-01-06T15:35:05.700Z,0.81
2024-01-06T15:37:33.389Z,0.27
2024-01-06T15:40:01.309Z,0.53
2024-01-06T15:42:29.854Z,0.51
2024-01-06T15:44:57.460Z,0.79
2024-01-06T15:47:26.334Z,0.45
2024-01-06T15:49:54.125Z,0.87
2024-01-06T15:52:22.784Z,0.45
2024-01-06T15:54:50.964Z,0.00
2024-01-06T15:57:18.761Z,0.48
2024-01-06T15:59:46.770Z,0.96
2024-01-06T16:02:14.551Z,0.83
2024-01-06T16:04:43.509Z,0.73
2024-01-06T16:07:11.371Z,1.74
2024-01-06T16:09:39.050Z,0.33
2024-01-06T16:12:07.898Z,0.30
2024-01-06T16:14:36.658Z,1.21
2024-01-06T16:17:05.278Z,0.36
2024-01-06T16:19:33.173Z,0.06
2024-01-06T16:22:11.109Z,-0.03
2024-01-06T16:24:44.971Z,0.11
2024-01-06T16:27:12.618Z,0.70
2024-01-06T16:29:40.533Z,1.15
2024-01-06T16:32:08.941Z,-0.11
2024-01-06T16:34:37.059Z,0.73
2024-01-06T16:37:06.937Z,-0.12
2024-01-06T16:39:34.749Z,0.33
2024-01-06T16:42:02.442Z,1.23
2024-01-06T16:44:31.817Z,0.13
2024-01-06T16:47:01.145Z,0.71
2024-01-06T16:49:29.269Z,0.06
2024-01-06T16:51:57.808Z,-0.09
2024-01-06T16:54:27.091Z,-0.14
2024-01-06T16:56:54.985Z,0.24
2024-01-06T16:59:22.689Z,-0.05
2024-01-06T17:01:50.559Z,-0.02
2024-01-06T17:04:18.777Z,-0.11
2024-01-06T17:06:47.439Z,-0.09
2024-01-06T17:09:15.266Z,0.58
2024-01-06T17:11:44.315Z,-0.15
2024-01-06T17:14:12.951Z,0.26
2024-01-06T17:16:40.836Z,0.27
2024-01-06T17:19:08.625Z,-0.36
2024-01-06T17:21:36.422Z,0.33
2024-01-06T17:24:04.277Z,0.62
2024-01-06T17:26:32.320Z,-0.38
2024-01-06T17:29:01.266Z,-0.11
2024-01-06T17:31:28.966Z,-0.32
2024-01-06T17:33:57.177Z,-0.56
2024-01-06T17:36:25.385Z,-0.17
2024-01-06T17:38:53.170Z,-0.72
2024-01-06T17:41:20.767Z,0.72
2024-01-06T17:43:48.722Z,-0.44
2024-01-06T17:46:18.101Z,0.03
2024-01-06T17:48:45.879Z,0.43
2024-01-06T17:51:13.788Z,-0.76
2024-01-06T17:53:41.550Z,0.20
2024-01-06T17:56:09.126Z,0.37
2024-01-06T17:58:36.984Z,-0.61
2024-01-06T18:01:05.077Z,0.42
2024-01-06T18:03:34.245Z,0.02
2024-01-06T18:06:01.985Z,-0.64
2024-01-06T18:08:29.580Z,-0.16
2024-01-06T18:10:57.109Z,-0.57
2024-01-06T18:13:24.717Z,-0.67
2024-01-06T18:15:52.497Z,0.20
2024-01-06T18:18:20.363Z,-0.33
2024-01-06T18:20:50.610Z,-0.23
2024-01-06T18:23:18.344Z,0.48
2024-01-06T18:25:45.964Z,-0.31
2024-01-06T18:28:14.216Z,-0.57
2024-01-06T18:30:41.870Z,-0.81
2024-01-06T18:33:09.605Z,-0.37
2024-01-06T18:35:37.212Z,-0.55
2024-01-06T18:38:06.436Z,-0.83
2024-01-06T18:40:34.518Z,-0.71
2024-01-06T18:43:02.131Z,0.06
2024-01-06T18:45:30.185Z,-0.69
2024-01-06T18:47:58.036Z,-0.75
2024-01-06T18:50:26.254Z,-0.85
2024-01-06T18:52:54.070Z,-0.09
2024-01-06T18:55:23.087Z,-0.45
2024-01-06T18:57:50.761Z,-0.93
2024-01-06T19:00:20.608Z,-0.59
2024-01-06T19:02:49.496Z,0.12
2024-01-06T19:05:17.429Z,-0.07
2024-01-06T19:07:46.176Z,-0.55
2024-01-06T19:10:14.589Z,0.63
2024-01-06T19:12:43.532Z,-0.86
2024-01-06T19:15:11.231Z,-0.47
2024-01-06T19:17:39.557Z,-0.73
2024-01-06T19:20:07.863Z,-0.63
2024-01-06T19:22:35.423Z,0.27
2024-01-06T19:25:04.213Z,-0.08
2024-01-06T19:27:33.599Z,-0.31
2024-01-06T19:30:04.834Z,-1.23
2024-01-06T19:32:32.487Z,-0.79
2024-01-06T19:35:00.382Z,-0.88
2024-01-06T19:37:28.033Z,-0.78
2024-01-06T19:39:55.672Z,-1.05
2024-01-06T19:42:23.443Z,-0.62
2024-01-06T19:44:51.011Z,-0.86
2024-01-06T19:47:20.064Z,-0.01
2024-01-06T19:49:48.580Z,-0.74
2024-01-06T19:52:16.712Z,-0.51
2024-01-06T19:54:44.555Z,-0.56
2024-01-06T19:57:15.772Z,0.34
2024-01-06T19:59:43.631Z,-0.58
2024-01-06T20:02:11.279Z,-1.06
2024-01-06T20:04:40.637Z,-0.64
2024-01-06T20:07:08.620Z,-0.32
2024-01-06T20:09:36.432Z,0.04
2024-01-06T20:12:04.305Z,-0.25
2024-01-06T20:14:31.901Z,-0.12
2024-01-06T20:16:59.516Z,-0.86
2024-01-06T20:19:27.521Z,-0.88
2024-01-06T20:21:56.574Z,-1.10
2024-01-06T20:24:24.391Z,-0.87
2024-01-06T20:26:54.158Z,-0.32
2024-01-06T20:29:23.058Z,-0.30
2024-01-06T20:31:50.843Z,-0.51
2024-01-06T20:34:18.740Z,-0.90
2024-01-06T20:36:46.555Z,-0.80
2024-01-06T20:39:18.402Z,-0.65
2024-01-06T20:41:46.194Z,-0.79
2024-01-06T20:44:14.250Z,-1.13
2024-01-06T20:46:43.072Z,-0.78
2024-01-06T20:49:10.731Z,-1.13
2024-01-06T20:51:38.563Z,-1.21
2024-01-06T20:54:06.860Z,-1.15
2024-01-06T20:56:36.308Z,-1.10
2024-01-06T20:59:03.954Z,-1.04
2024-01-06T21:01:31.726Z,-1.03
2024-01-06T21:03:59.461Z,-1.13
2024-01-06T21:06:27.447Z,-1.21
2024-01-06T21:08:55.197Z,-1.26
2024-01-06T21:11:22.900Z,-1.26
2024-01-06T21:13:52.533Z,-1.11
2024-01-06T21:16:20.821Z,-1.21
2024-01-06T21:18:50.211Z,0.17
2024-01-06T21:21:19.887Z,-0.45
2024-01-06T21:23:49.352Z,-1.10
2024-01-06T21:26:17.392Z,-1.35
2024-01-06T21:28:45.921Z,-0.03
2024-01-06T21:31:16.005Z,-0.66
2024-01-06T21:33:43.838Z,-0.20
2024-01-06T21:36:11.608Z,-0.59
2024-01-06T21:38:39.340Z,-1.29
2024-01-06T21:41:08.350Z,-0.32
2024-01-06T21:43:36.047Z,-1.41
2024-01-06T21:46:03.988Z,-1.26
2024-01-06T21:48:33.021Z,-1.16
2024-01-06T21:51:00.717Z,-1.01
2024-01-06T21:53:29.348Z,-1.40
2024-01-06T21:55:57.021Z,-1.39
2024-01-06T21:58:25.108Z,-1.43
2024-01-06T22:00:55.481Z,-1.39
2024-01-06T22:03:23.691Z,-1.34
2024-01-06T22:05:53.319Z,-0.98
2024-01-06T22:08:21.000Z,-1.35
2024-01-06T22:10:48.614Z,-1.23
2024-01-06T22:13:16.179Z,-1.56
2024-01-06T22:15:43.793Z,-1.39
2024-01-06T22:18:12.552Z,-1.25
2024-01-06T22:20:40.168Z,-1.49
2024-01-06T22:23:09.073Z,-0.26
2024-01-06T22:25:36.638Z,-1.51
2024-01-06T22:28:04.960Z,-0.88
2024-01-06T22:30:33.509Z,-1.34
2024-01-06T22:33:02.251Z,-1.25
2024-01-06T22:35:29.972Z,-1.23
2024-01-06T22:37:57.995Z,-1.03
2024-01-06T22:40:26.840Z,-1.55
2024-01-06T22:42:54.391Z,-1.05
2024-01-06T22:45:24.060Z,-1.51
2024-01-06T22:47:51.881Z,-1.74
2024-01-06T22:50:19.540Z,-1.42
2024-01-06T22:52:47.065Z,-1.69
2024-01-06T22:55:14.724Z,-1.80
2024-01-06T22:57:44.011Z,-1.67
2024-01-06T23:00:13.804Z,-1.64
2024-01-06T23:02:41.346Z,-1.54
2024-01-06T23:05:10.009Z,-1.48
2024-01-06T23:07:37.577Z,-0.87
2024-01-06T23:10:05.990Z,-1.57
2024-01-06T23:12:33.591Z,-1.52
2024-01-06T23:15:03.460Z,-1.68
2024-01-06T23:17:31.083Z,-1.39
2024-01-06T23:19:58.792Z,-1.16
2024-01-06T23:22:26.365Z,-0.29
2024-01-06T23:24:53.946Z,-1.45
2024-01-06T23:27:22.224Z,-1.81
2024-01-06T23:29:49.769Z,-1.68
2024-01-06T23:32:18.776Z,-1.55
2024-01-06T23:34:46.558Z,-1.53
2024-01-06T23:37:14.248Z,-1.44
2024-01-06T23:39:41.973Z,-1.77
2024-01-06T23:42:10.883Z,-1.56
2024-01-06T23:44:38.432Z,-1.11
2024-01-06T23:47:06.075Z,-1.66
2024-01-06T23:49:35.078Z,-1.31
2024-01-06T23:52:02.713Z,-1.32
2024-01-06T23:54:30.361Z,-0.88
2024-01-06T23:56:57.907Z,-1.06
2024-01-06T23:59:25.489Z,-1.30
